Time;durP1;ratioP1;P1;durP2;ratioP2;P2;SDS_P1;SDS_P2;PMS_P1;PMS_P2;Temp;Humidity;BMP_temperature;BMP_pressure;BME280_temperature;BME280_humidity;BME280_pressure;Samples;Min_cycle;Max_cycle;Signal;HPM_P1;HPM_P2
2022/06/21 00:01:20;;;;;;;15.05;11.23;;;;;;;23.95;53.29;93157.91;5030390;28;20145;-88
2022/06/21 00:03:46;;;;;;;14.82;11.18;;;;;;;23.92;52.96;93164.53;5002388;28;20038;-91
2022/06/21 00:06:17;;;;;;;15.75;11.77;;;;;;;23.94;53.19;93161.97;5017282;28;20087;-91
2022/06/21 00:08:43;;;;;;;13.07;10.80;;;;;;;23.92;53.03;93165.28;5017294;28;20045;-91
2022/06/21 00:11:22;;;;;;;11.95;10.27;;;;;;;23.96;52.91;93166.94;5000031;28;20041;-88
2022/06/21 00:13:48;;;;;;;17.45;11.65;;;;;;;23.92;53.21;93161.78;5016802;28;20413;-90
2022/06/21 00:16:13;;;;;;;15.07;10.80;;;;;;;23.95;52.86;93165.47;5016914;28;20042;-96
2022/06/21 00:18:39;;;;;;;17.60;11.63;;;;;;;23.92;53.21;93164.53;5002039;28;20053;-91
2022/06/21 00:21:13;;;;;;;12.68;10.63;;;;;;;23.90;53.07;93167.84;5034540;28;20412;-94
2022/06/21 00:23:39;;;;;;;13.25;10.30;;;;;;;23.92;53.19;93167.31;5034278;28;20033;-92
2022/06/21 00:26:05;;;;;;;17.75;11.65;;;;;;;23.89;53.28;93158.09;5018744;28;20110;-87
2022/06/21 00:28:30;;;;;;;14.55;11.15;;;;;;;23.91;52.96;93166.56;5035507;28;20038;-93
2022/06/21 00:30:56;;;;;;;12.60;9.68;;;;;;;23.90;53.00;93154.03;5019381;28;20030;-90
2022/06/21 00:33:22;;;;;;;12.05;10.30;;;;;;;23.90;53.00;93164.34;5018964;28;20047;-92
2022/06/21 00:35:49;;;;;;;13.50;9.90;;;;;;;23.91;52.94;93163.81;5019255;28;20046;-93
2022/06/21 00:38:15;;;;;;;12.27;10.18;;;;;;;23.89;52.93;93166.38;5001592;28;20051;-95
2022/06/21 00:40:41;;;;;;;16.33;11.73;;;;;;;23.89;53.01;93168.41;5018325;28;20033;-94
2022/06/21 00:43:15;;;;;;;13.65;10.52;;;;;;;23.91;52.91;93166.56;5029809;28;20033;-93
2022/06/21 00:45:42;;;;;;;12.63;9.95;;;;;;;23.88;53.04;93177.97;5022039;28;20075;-90
2022/06/21 00:48:17;;;;;;;12.55;10.57;;;;;;;23.87;53.05;93165.44;5036837;28;20045;-90
2022/06/21 00:50:44;;;;;;;12.15;10.05;;;;;;;23.89;52.82;93171.16;5038956;28;20040;-87
2022/06/21 00:53:27;;;;;;;14.75;9.80;;;;;;;23.86;52.95;93161.97;5053706;28;20041;-88
2022/06/21 00:56:13;;;;;;;14.10;10.48;;;;;;;23.89;53.01;93162.88;5055500;28;20049;-95
2022/06/21 00:58:38;;;;;;;14.32;10.40;;;;;;;23.86;52.89;93161.22;5037685;28;20384;-92
2022/06/21 01:01:15;;;;;;;14.00;10.48;;;;;;;23.87;52.80;93165.44;5006378;28;20037;-95
2022/06/21 01:03:42;;;;;;;12.15;9.70;;;;;;;23.86;52.93;93158.47;5035495;28;20381;-89
2022/06/21 01:06:33;;;;;;;12.18;10.00;;;;;;;23.86;52.75;93161.22;5016967;28;20065;-88
2022/06/21 01:09:03;;;;;;;;;;;;;;;23.88;52.76;93155.88;5018149;28;20045;-94
2022/06/21 01:11:32;;;;;;;12.17;9.73;;;;;;;23.86;52.83;93156.44;5017025;28;19925;-86
2022/06/21 01:13:58;;;;;;;15.20;10.68;;;;;;;23.84;52.73;93167.28;5037345;28;20470;-89
2022/06/21 01:16:23;;;;;;;14.35;9.40;;;;;;;23.85;52.75;93171.53;5031919;28;20030;-87
2022/06/21 01:18:49;;;;;;;12.65;9.80;;;;;;;23.82;52.99;93169.88;5000070;28;20041;-88
2022/06/21 01:21:16;;;;;;;13.50;10.50;;;;;;;23.83;52.97;93182.38;5000586;28;20095;-94
2022/06/21 01:24:16;;;;;;;12.18;9.40;;;;;;;23.84;52.87;93183.13;5004248;28;20047;-91
2022/06/21 01:26:46;;;;;;;11.82;9.57;;;;;;;23.84;53.00;93186.63;5033917;28;20463;-90
2022/06/21 01:29:16;;;;;;;13.18;8.80;;;;;;;23.84;52.82;93185.88;5032234;28;20033;-91
2022/06/21 01:31:42;;;;;;;;;;;;;;;23.85;52.72;93190.84;5017753;28;20044;-92
2022/06/21 01:34:15;;;;;;;10.95;9.35;;;;;;;23.81;52.82;93184.97;5036644;28;19929;-95
2022/06/21 01:36:41;;;;;;;12.15;9.23;;;;;;;23.83;52.86;93181.66;5021650;28;20037;-87
2022/06/21 01:39:08;;;;;;;11.35;9.23;;;;;;;23.83;52.82;93190.66;5057139;28;20510;-91
2022/06/21 01:41:39;;;;;;;11.70;8.15;;;;;;;23.81;52.88;93187.75;5057473;28;20037;-92
2022/06/21 01:44:09;;;;;;;13.07;9.52;;;;;;;23.81;52.75;93182.22;5038230;28;20030;-86
2022/06/21 01:46:35;;;;;;;10.90;8.98;;;;;;;23.81;52.75;93203.56;5037962;28;20081;-88
2022/06/21 01:49:06;;;;;;;11.60;8.93;;;;;;;23.82;52.63;93193.97;5036793;28;20033;-90
2022/06/21 01:51:38;;;;;;;11.15;9.23;;;;;;;23.83;52.60;93203.72;5036969;28;20045;-93
2022/06/21 01:54:04;;;;;;;10.63;8.00;;;;;;;23.80;52.87;93200.06;5020020;28;20080;-93
2022/06/21 01:56:31;;;;;;;10.98;8.65;;;;;;;23.82;52.44;93205.75;5021645;28;20038;-89
2022/06/21 01:59:03;;;;;;;9.80;8.38;;;;;;;23.79;52.64;93201.34;5037780;28;20029;-94
2022/06/21 02:01:46;;;;;;;9.65;8.32;;;;;;;23.80;52.57;93202.84;5038471;28;20061;-87
2022/06/21 02:04:13;;;;;;;12.52;8.05;;;;;;;23.82;52.50;93202.25;5020423;28;20040;-89
2022/06/21 02:06:41;;;;;;;12.10;8.75;;;;;;;23.78;52.50;93199.16;5021285;28;20412;-91
2022/06/21 02:09:11;;;;;;;12.50;8.50;;;;;;;23.81;52.45;93201.53;5003627;28;20042;-92
2022/06/21 02:11:47;;;;;;;9.15;7.93;;;;;;;23.82;52.32;93207.78;5005502;28;20033;-90
2022/06/21 02:14:28;;;;;;;8.93;7.88;;;;;;;23.80;52.42;93221.41;5023312;28;20380;-94
2022/06/21 02:16:53;;;;;;;;;;;;;;;23.81;52.26;93211.84;5057656;28;20123;-94
2022/06/21 02:19:26;;;;;;;12.03;8.40;;;;;;;23.80;52.45;93213.13;5040548;28;19978;-92
2022/06/21 02:21:51;;;;;;;11.02;8.20;;;;;;;23.79;52.42;93214.41;5040444;28;20263;-91
2022/06/21 02:24:17;;;;;;;11.73;8.50;;;;;;;23.78;52.44;93212.94;5043126;28;20415;-92
2022/06/21 02:26:42;;;;;;;9.05;8.05;;;;;;;23.78;52.45;93212.94;5036819;28;20566;-88
2022/06/21 02:29:09;;;;;;;8.60;7.40;;;;;;;23.75;52.53;93211.28;5002931;28;20036;-89
2022/06/21 02:31:34;;;;;;;11.57;8.25;;;;;;;23.75;52.52;93214.03;5031093;28;20029;-95
2022/06/21 02:34:04;;;;;;;8.23;7.03;;;;;;;23.75;52.53;93208.53;5040443;28;20040;-91
2022/06/21 02:36:32;;;;;;;8.98;7.47;;;;;;;23.75;52.23;93200.25;5038839;28;20056;-87
2022/06/21 02:38:58;;;;;;;9.20;7.30;;;;;;;23.74;52.49;93213.31;5021535;28;20044;-90
2022/06/21 02:41:32;;;;;;;9.00;7.57;;;;;;;23.75;52.54;93208.53;5036017;28;20041;-94
2022/06/21 02:44:11;;;;;;;10.27;8.48;;;;;;;23.76;52.35;93210.00;5020945;28;20053;-94
2022/06/21 02:46:38;;;;;;;8.40;7.10;;;;;;;23.74;52.39;93212.56;5018723;28;20033;-94
2022/06/21 02:49:09;;;;;;;9.55;7.20;;;;;;;23.75;52.15;93217.53;5035625;28;20037;-92
2022/06/21 02:51:37;;;;;;;10.40;7.53;;;;;;;23.75;52.22;93216.81;5019261;28;20120;-93
2022/06/21 02:54:25;;;;;;;8.55;7.10;;;;;;;23.76;52.11;93221.78;5018588;28;20137;-86
2022/06/21 02:56:59;;;;;;;10.13;7.70;;;;;;;23.77;52.30;93219.75;5014193;28;20056;-93
2022/06/21 02:59:24;;;;;;;8.20;7.03;;;;;;;23.73;52.21;93214.59;5016440;28;20034;-91
2022/06/21 03:02:00;;;;;;;10.95;8.45;;;;;;;23.77;52.24;93217.00;5028908;28;20060;-87
2022/06/21 03:04:50;;;;;;;7.40;6.53;;;;;;;23.73;52.33;93217.34;5003987;28;20037;-92
2022/06/21 03:07:32;;;;;;;9.05;7.30;;;;;;;23.75;52.26;93236.13;4988394;28;20333;-96
2022/06/21 03:09:58;;;;;;;8.05;6.82;;;;;;;23.73;52.01;93225.63;5004183;28;20293;-92
2022/06/21 03:12:29;;;;;;;8.07;6.85;;;;;;;23.75;52.32;93216.81;5002336;28;20037;-93
2022/06/21 03:14:59;;;;;;;8.90;6.88;;;;;;;23.74;52.16;93220.84;5019998;28;20033;-94
2022/06/21 03:17:31;;;;;;;9.32;7.25;;;;;;;23.73;52.21;93222.88;5004006;28;20065;-87
2022/06/21 03:19:56;;;;;;;8.90;7.32;;;;;;;23.77;51.92;93214.97;5010698;28;20404;-87
2022/06/21 03:22:23;;;;;;;9.85;6.95;;;;;;;23.78;51.85;93224.72;5000935;28;20042;-87
2022/06/21 03:24:50;;;;;;;8.02;6.85;;;;;;;23.81;51.70;93217.38;5002583;28;20038;-94
2022/06/21 03:27:28;;;;;;;9.70;7.05;;;;;;;23.79;52.11;93208.91;4998352;28;20509;-87
2022/06/21 03:29:54;;;;;;;8.35;7.45;;;;;;;23.80;52.10;93210.38;5014438;28;20118;-93
2022/06/21 03:32:19;;;;;;;8.20;6.68;;;;;;;23.72;50.15;93215.88;5029157;28;20125;-92
2022/06/21 03:34:45;;;;;;;6.00;4.93;;;;;;;23.72;47.93;93217.91;5014633;28;20041;-94
2022/06/21 03:37:10;;;;;;;6.55;4.97;;;;;;;23.54;47.91;93225.97;5015241;28;20042;-88
2022/06/21 03:42:20;;;;;;;5.15;4.03;;;;;;;23.48;45.23;93224.66;5017835;28;20041;-93
2022/06/21 03:44:50;;;;;;;4.90;3.88;;;;;;;23.41;44.78;93225.34;5016036;28;20067;-93
2022/06/21 03:47:30;;;;;;;6.20;5.00;;;;;;;23.40;44.58;93224.63;5014608;28;20037;-92
2022/06/21 03:50:05;;;;;;;7.25;5.80;;;;;;;23.34;44.01;93237.88;5014483;28;20595;-92
2022/06/21 03:52:44;;;;;;;7.63;5.93;;;;;;;23.27;43.58;93243.34;4994877;28;20077;-90
2022/06/21 03:55:31;;;;;;;4.18;3.70;;;;;;;23.07;38.56;93242.19;5009011;28;20046;-95
2022/06/21 03:58:03;;;;;;;5.68;2.40;;;;;;;22.91;35.57;93235.88;4991768;28;20037;-93
2022/06/21 04:00:31;;;;;;;4.55;1.80;;;;;;;22.44;34.57;93234.13;5011587;28;20052;-87
2022/06/21 04:03:00;;;;;;;11.82;2.10;;;;;;;22.26;33.88;93228.88;4993405;28;20026;-94
2022/06/21 04:05:35;;;;;;;4.35;1.83;;;;;;;22.22;33.65;93240.97;4991441;28;20038;-89
2022/06/21 04:08:06;;;;;;;3.30;1.73;;;;;;;22.05;33.73;93246.16;4985104;28;20030;-92
2022/06/21 04:10:34;;;;;;;9.13;3.30;;;;;;;21.81;33.87;93241.72;4976679;28;20192;-95
2022/06/21 04:13:20;;;;;;;22.73;11.48;;;;;;;21.75;33.52;93232.84;5025354;28;20050;-94
2022/06/21 04:16:15;;;;;;;15.38;8.25;;;;;;;21.72;33.87;93233.91;5006439;28;20025;-92
2022/06/21 04:19:02;;;;;;;27.80;9.45;;;;;;;21.79;33.35;93236.00;5027854;28;20080;-89
2022/06/21 04:21:39;;;;;;;13.73;7.40;;;;;;;21.59;33.40;93233.97;5008161;28;20038;-94
2022/06/21 04:24:26;;;;;;;14.73;3.80;;;;;;;21.48;33.99;93239.72;4980660;28;20055;-91
2022/06/21 04:26:57;;;;;;;16.85;5.75;;;;;;;21.33;33.59;93231.34;5010843;28;20037;-92
2022/06/21 04:29:35;;;;;;;11.70;5.50;;;;;;;21.49;33.99;93233.69;5028204;28;20060;-93
2022/06/21 04:32:20;;;;;;;10.13;4.60;;;;;;;21.53;33.99;93236.84;4978194;28;20038;-93
2022/06/21 04:34:50;;;;;;;7.63;3.10;;;;;;;21.30;33.96;93241.38;4978552;28;20076;-93
2022/06/21 04:37:18;;;;;;;;;;;;;;;21.57;33.70;93238.53;4971728;28;20049;-94
2022/06/21 04:39:49;;;;;;;7.25;3.20;;;;;;;21.22;34.26;93243.31;5001515;28;20137;-89
2022/06/21 04:42:49;;;;;;;33.47;21.27;;;;;;;21.27;34.60;93247.22;5013188;28;20029;-92
2022/06/21 04:45:33;;;;;;;50.40;34.47;;;;;;;21.16;35.12;93248.91;4995320;28;20101;-93
2022/06/21 04:48:15;;;;;;;15.93;10.95;;;;;;;21.39;34.79;93246.44;5007810;28;20045;-86
2022/06/21 04:50:46;;;;;;;7.18;5.28;;;;;;;21.13;34.79;93257.50;5001114;28;20373;-87
2022/06/21 04:53:27;;;;;;;;;;;;;;;21.38;34.46;93249.72;4980099;28;20048;-92
2022/06/21 04:56:15;;;;;;;11.70;3.15;;;;;;;21.19;34.56;93253.34;5027861;28;19924;-89
2022/06/21 04:58:41;;;;;;;14.90;5.13;;;;;;;21.06;35.13;93260.88;5013988;28;20053;-88
2022/06/21 05:03:50;;;;;;;33.17;12.00;;;;;;;21.13;35.95;93249.97;5032705;28;20115;-86
2022/06/21 05:06:16;;;;;;;51.40;21.65;;;;;;;21.14;35.55;93245.22;5030437;28;20068;-88
2022/06/21 05:08:41;;;;;;;85.28;35.70;;;;;;;21.07;35.22;93257.59;5013786;28;20051;-87
2022/06/21 05:11:08;;;;;;;54.72;23.42;;;;;;;21.13;35.10;93260.22;4996716;28;20110;-86
2022/06/21 05:13:38;;;;;;;81.35;29.67;;;;;;;21.03;35.14;93261.94;5023132;28;20041;-91
2022/06/21 05:16:10;;;;;;;58.50;25.23;;;;;;;21.10;34.79;93264.78;5004128;28;20052;-89
2022/06/21 05:18:42;;;;;;;69.25;30.13;;;;;;;21.10;35.14;93269.53;4999024;28;20124;-92
2022/06/21 05:21:14;;;;;;;65.05;36.15;;;;;;;;;;5018400;28;20037;-93
2022/06/21 05:23:40;;;;;;;41.50;20.10;;;;;;;21.07;34.96;93271.34;5019084;28;20037;-90
2022/06/21 05:26:10;;;;;;;47.65;17.92;;;;;;;21.11;35.14;93268.28;5015739;28;20473;-91
2022/06/21 05:28:42;;;;;;;21.48;12.00;;;;;;;20.96;34.45;93266.09;5032503;23;20045;-89
2022/06/21 05:31:24;;;;;;;30.20;11.05;;;;;;;21.06;34.56;93264.38;5002873;28;20040;-89
2022/06/21 05:33:52;;;;;;;17.35;8.52;;;;;;;21.01;34.80;93270.72;5010168;28;20042;-90
2022/06/21 05:36:40;;;;;;;21.42;5.40;;;;;;;21.10;34.65;93278.53;4980746;28;20548;-91
2022/06/21 05:39:14;;;;;;;29.23;7.15;;;;;;;21.04;34.48;93272.41;5011646;28;20057;-92
2022/06/21 05:41:43;;;;;;;53.60;25.52;;;;;;;20.94;34.48;93276.88;5011530;28;20045;-93
2022/06/21 05:44:14;;;;;;;82.85;23.13;;;;;;;20.91;34.88;93272.44;5006768;28;20041;-91
2022/06/21 05:46:50;;;;;;;50.00;25.30;;;;;;;21.05;35.03;93276.63;5022650;28;20038;-92
2022/06/21 05:49:26;;;;;;;47.92;24.80;;;;;;;21.02;34.98;93271.44;5003985;28;20520;-88
2022/06/21 05:51:52;;;;;;;84.32;34.25;;;;;;;21.15;34.83;93272.19;5009164;28;20034;-92
2022/06/21 05:54:19;;;;;;;40.13;20.05;;;;;;;21.07;34.93;93270.59;5002589;28;20526;-91
2022/06/21 05:56:45;;;;;;;46.25;22.95;;;;;;;21.17;34.65;93268.91;5010954;28;20037;-88
2022/06/21 05:59:20;;;;;;;37.45;18.50;;;;;;;21.13;35.08;93271.97;4999900;28;20459;-90
2022/06/21 06:01:59;;;;;;;55.20;21.65;;;;;;;21.21;34.91;93272.09;5015040;28;20045;-88
2022/06/21 06:04:34;;;;;;;46.95;23.17;;;;;;;21.14;34.75;93269.97;5012228;28;20064;-89
2022/06/21 06:06:59;;;;;;;36.25;17.50;;;;;;;21.06;34.96;93263.63;4993033;28;20057;-93
2022/06/21 06:09:27;;;;;;;33.08;18.95;;;;;;;21.10;35.39;93277.78;4993174;28;20042;-90
2022/06/21 06:11:59;;;;;;;52.10;23.02;;;;;;;21.35;35.29;93278.28;4992912;28;20041;-87
2022/06/21 06:14:30;;;;;;;49.58;22.25;;;;;;;21.53;34.90;93275.38;5024134;28;20132;-88
2022/06/21 06:16:55;;;;;;;48.55;18.45;;;;;;;21.54;34.75;93267.84;5012638;28;20400;-89
2022/06/21 06:19:28;;;;;;;40.20;18.00;;;;;;;21.61;34.89;93267.19;5021603;28;20042;-88
2022/06/21 06:22:06;;;;;;;36.60;17.40;;;;;;;21.71;34.85;93270.94;5031994;28;20045;-88
2022/06/21 06:24:34;;;;;;;31.35;16.65;;;;;;;21.75;35.03;93265.84;5030225;28;20045;-92
2022/06/21 06:27:00;;;;;;;32.95;13.85;;;;;;;21.86;34.89;93260.09;5018500;28;20038;-88
2022/06/21 06:29:37;;;;;;;37.53;17.42;;;;;;;21.98;34.63;93251.56;5015235;28;20055;-89
2022/06/21 06:32:21;;;;;;;30.50;14.73;;;;;;;21.99;34.79;93255.78;5008068;28;20042;-89
2022/06/21 06:34:53;;;;;;;29.20;15.65;;;;;;;22.05;35.20;93248.16;4999085;28;20034;-90
2022/06/21 06:37:30;;;;;;;34.72;18.88;;;;;;;22.05;35.08;93246.16;4998750;28;20046;-91
2022/06/21 06:39:55;;;;;;;52.92;25.65;;;;;;;22.06;34.86;93255.16;4997310;28;20106;-90
2022/06/21 06:42:23;;;;;;;51.58;23.95;;;;;;;22.10;34.77;93252.78;5015138;28;20458;-90
2022/06/21 06:44:53;;;;;;;50.08;22.05;;;;;;;22.16;34.76;93256.88;5020512;28;20037;-88
2022/06/21 06:47:42;;;;;;;85.80;28.80;;;;;;;22.23;35.00;93252.72;5015808;28;20038;-93
2022/06/21 06:50:14;;;;;;;137.32;35.30;;;;;;;22.27;35.18;93260.63;4999152;28;20042;-88
2022/06/21 06:52:51;;;;;;;79.45;28.92;;;;;;;22.31;35.02;93261.75;5019252;28;20044;-90
2022/06/21 06:55:26;;;;;;;86.35;28.05;;;;;;;22.35;35.00;93259.38;5003173;28;20046;-86
2022/06/21 06:57:54;;;;;;;67.88;28.25;;;;;;;22.39;35.10;93259.06;5000959;28;20121;-89
2022/06/21 07:00:26;;;;;;;155.50;40.28;;;;;;;22.44;34.96;93263.69;4996553;28;20045;-92
2022/06/21 07:03:24;;;;;;;98.70;36.10;;;;;;;22.50;35.26;93253.25;5023966;28;20079;-88
2022/06/21 07:05:58;;;;;;;95.40;33.55;;;;;;;22.50;35.37;93253.25;4996006;28;20034;-88
2022/06/21 07:08:31;;;;;;;90.57;32.58;;;;;;;22.51;35.36;93263.75;4998182;28;20137;-88
2022/06/21 07:10:57;;;;;;;111.90;32.42;;;;;;;22.57;35.31;93277.34;5014773;28;20041;-87
2022/06/21 07:13:23;;;;;;;82.85;32.88;;;;;;;22.57;35.55;93274.59;5009458;28;20045;-91
2022/06/21 07:15:49;;;;;;;87.40;30.40;;;;;;;22.58;35.37;93268.53;5016117;28;20503;-88
2022/06/21 07:18:19;;;;;;;79.85;26.58;;;;;;;22.64;35.58;93273.19;4996197;28;20069;-87
2022/06/21 07:20:45;;;;;;;91.18;27.90;;;;;;;22.63;35.60;93266.19;5015877;28;20444;-88
2022/06/21 07:23:27;;;;;;;97.03;26.98;;;;;;;22.69;35.73;93270.28;4991831;28;20092;-96
2022/06/21 07:26:05;;;;;;;101.90;30.08;;;;;;;22.69;35.57;93261.28;5070308;23;20046;-94
2022/06/21 07:29:15;;;;;;;107.10;37.65;;;;;;;22.71;35.98;93266.97;5127495;23;20194;-96
2022/06/21 07:32:07;;;;;;;129.00;42.28;;;;;;;22.74;36.04;93268.63;5045211;28;20048;-90
2022/06/21 07:37:39;;;;;;;214.88;63.05;;;;;;;22.75;35.82;93265.31;5090472;23;20100;-91
2022/06/21 07:40:37;;;;;;;182.65;62.67;;;;;;;22.77;36.09;93267.53;4992257;28;20080;-92
2022/06/21 07:43:36;;;;;;;187.57;59.30;;;;;;;22.80;36.37;93258.22;4986500;28;20149;-91
2022/06/21 07:46:07;;;;;;;169.50;65.60;;;;;;;22.80;36.29;93269.25;4974500;28;20087;-91
2022/06/21 07:52:35;;;;;;;152.55;55.83;;;;;;;22.85;36.10;93274.59;4948814;28;20046;-90
2022/06/21 07:55:13;;;;;;;168.50;63.95;;;;;;;22.84;36.50;93286.91;4941939;28;20039;-88
2022/06/21 07:58:39;;;;;;;172.50;61.50;;;;;;;22.87;36.38;93282.34;4946408;28;20107;-89
2022/06/21 08:07:05;;;;;;;208.30;99.25;;;;;;;22.92;36.53;93298.00;4826585;29;20702;-92
2022/06/21 08:09:55;;;;;;;165.82;79.70;;;;;;;22.90;36.61;93295.78;4779616;29;20090;-93
2022/06/21 08:12:21;;;;;;;220.80;111.35;;;;;;;22.93;36.43;93282.19;4829910;29;20056;-92
2022/06/21 08:14:46;;;;;;;224.95;107.78;;;;;;;22.99;36.71;93280.00;4839070;29;20049;-91
2022/06/21 08:17:33;;;;;;;219.20;109.70;;;;;;;22.99;36.64;93294.53;4821801;29;20145;-89
2022/06/21 08:20:10;;;;;;;218.80;125.55;;;;;;;22.99;36.64;93286.25;4819394;29;20623;-93
2022/06/21 08:22:57;;;;;;;232.75;129.90;;;;;;;22.96;36.72;93286.59;4816749;29;20065;-93
2022/06/21 08:25:43;;;;;;;184.00;106.05;;;;;;;22.96;36.23;93279.06;4827113;29;20053;-94
2022/06/21 08:28:18;;;;;;;195.90;108.13;;;;;;;22.96;36.64;93287.31;4822315;29;20136;-93
2022/06/21 08:30:58;;;;;;;166.45;82.95;;;;;;;23.00;36.32;93273.94;4833266;29;20493;-96
2022/06/21 08:33:55;;;;;;;149.55;82.80;;;;;;;22.98;36.57;93270.97;4803417;29;20042;-92
2022/06/21 08:36:25;;;;;;;138.32;78.55;;;;;;;23.01;36.27;93267.13;4916403;28;20046;-92
2022/06/21 08:39:00;;;;;;;133.93;75.53;;;;;;;23.01;36.47;93267.13;4971919;28;20496;-86
2022/06/21 08:41:59;;;;;;;132.70;77.15;;;;;;;23.01;36.80;93269.16;5006946;28;20042;-90
2022/06/21 08:48:01;;;;;;;122.38;65.22;;;;;;;22.99;36.38;93280.00;5011956;28;20112;-88
2022/06/21 08:50:51;;;;;;;90.28;53.33;;;;;;;23.03;36.28;93275.59;5007419;28;20157;-87
2022/06/21 08:53:43;;;;;;;103.45;57.83;;;;;;;23.02;36.15;93276.16;5019911;28;20046;-92
2022/06/21 08:56:36;;;;;;;179.80;81.00;;;;;;;22.99;36.26;93283.50;4981593;28;20115;-87
2022/06/21 08:59:33;;;;;;;179.95;79.88;;;;;;;23.02;36.51;93295.44;4991082;28;20124;-88
2022/06/21 09:02:08;;;;;;;166.90;86.82;;;;;;;23.02;36.35;93295.44;4980175;28;20046;-89
2022/06/21 09:04:51;;;;;;;157.55;82.80;;;;;;;22.98;36.30;93286.78;4952489;28;20049;-87
2022/06/21 09:07:21;;;;;;;204.50;96.68;;;;;;;23.02;36.34;93292.69;5002377;28;20042;-89
2022/06/21 09:10:03;;;;;;;203.73;94.03;;;;;;;23.00;36.32;93292.50;5002135;28;20064;-87
2022/06/21 09:12:52;;;;;;;151.25;77.25;;;;;;;23.03;36.45;93286.63;5006459;28;20039;-92
2022/06/21 09:15:43;;;;;;;144.85;75.30;;;;;;;23.03;36.43;93283.16;5009054;28;20046;-93
2022/06/21 09:18:43;;;;;;;138.75;73.03;;;;;;;23.01;35.95;93286.44;5011663;28;20049;-92
2022/06/21 09:21:27;;;;;;;139.57;73.90;;;;;;;23.04;36.19;93293.63;4993257;28;20128;-91
2022/06/21 09:24:05;;;;;;;106.75;62.53;;;;;;;23.01;35.91;93285.69;4995506;28;20042;-95
2022/06/21 09:26:35;;;;;;;129.55;77.28;;;;;;;23.00;36.21;93290.47;5007301;28;20046;-90
2022/06/21 09:29:26;;;;;;;141.82;84.47;;;;;;;23.01;36.40;93291.97;5005572;28;20042;-95
2022/06/21 09:32:13;;;;;;;166.00;90.35;;;;;;;23.01;36.09;93296.72;4998859;28;20088;-90
2022/06/21 09:34:56;;;;;;;167.57;86.13;;;;;;;23.03;36.37;93294.16;4977626;28;20635;-90
2022/06/21 09:37:29;;;;;;;163.55;83.57;;;;;;;23.06;36.31;93285.56;4981398;28;20108;-86
2022/06/21 09:40:10;;;;;;;139.93;81.13;;;;;;;23.03;36.14;93289.41;4981700;28;20058;-87
2022/06/21 09:42:39;;;;;;;;;;;;;;;23.07;36.13;93283.53;4978391;28;20124;-88
2022/06/21 09:45:38;;;;;;;225.23;104.85;;;;;;;23.09;36.50;93278.97;4979759;28;19925;-88
2022/06/21 09:48:09;;;;;;;267.92;120.43;;;;;;;23.06;36.30;93280.03;4990517;28;20074;-86
2022/06/21 09:50:46;;;;;;;267.42;121.65;;;;;;;23.08;36.44;93285.75;4990124;28;20527;-88
2022/06/21 09:53:39;;;;;;;239.65;112.47;;;;;;;23.10;36.09;93283.19;4989422;28;20050;-88
2022/06/21 09:56:27;;;;;;;220.88;107.40;;;;;;;23.10;36.72;93290.72;5014989;28;20049;-89
2022/06/21 09:59:07;;;;;;;190.63;105.70;;;;;;;23.08;36.32;93290.53;4982834;28;20033;-87
2022/06/21 10:01:43;;;;;;;151.40;85.68;;;;;;;23.02;34.38;93278.91;4982747;28;20045;-90
2022/06/21 10:04:36;;;;;;;116.80;66.47;;;;;;;23.02;33.71;93276.16;5005195;28;20026;-89
2022/06/21 10:07:20;;;;;;;111.60;57.63;;;;;;;23.01;33.44;93269.91;5014743;28;20108;-91
2022/06/21 10:09:48;;;;;;;87.35;46.72;;;;;;;23.01;32.16;93280.19;4980945;28;20025;-91
2022/06/21 10:12:39;;;;;;;70.95;43.13;;;;;;;23.04;32.20;93282.59;4996023;28;20026;-90
2022/06/21 10:15:22;;;;;;;67.00;38.55;;;;;;;23.02;32.56;93278.91;4976664;28;20030;-89
2022/06/21 10:17:56;;;;;;;76.43;41.65;;;;;;;22.99;32.63;93283.50;5009436;28;20037;-89
2022/06/21 10:20:41;;;;;;;73.15;42.40;;;;;;;23.02;33.08;93274.13;4965433;28;20117;-89
2022/06/21 10:23:13;;;;;;;69.05;39.15;;;;;;;23.05;32.50;93264.03;4986290;28;20112;-91
2022/06/21 10:26:13;;;;;;;50.65;30.48;;;;;;;22.99;31.99;93260.69;5007190;28;20104;-88
2022/06/21 10:28:57;;;;;;;92.47;53.38;;;;;;;23.03;32.37;93274.88;4995152;28;20136;-92
2022/06/21 10:31:29;;;;;;;63.17;39.00;;;;;;;23.03;32.48;93280.38;5029749;28;20660;-87
2022/06/21 10:34:31;;;;;;;65.45;36.83;;;;;;;23.03;32.61;93274.88;5013181;28;20029;-91
2022/06/21 10:37:10;;;;;;;72.32;36.28;;;;;;;23.01;32.93;93274.69;4993910;28;20049;-89
2022/06/21 10:40:02;;;;;;;64.35;33.72;;;;;;;23.05;33.29;93286.84;5000796;28;20037;-91
2022/06/21 10:42:50;;;;;;;56.33;30.80;;;;;;;23.08;33.04;93294.03;5007575;28;20171;-93
2022/06/21 10:45:47;;;;;;;50.72;30.10;;;;;;;23.06;33.28;93287.56;4996224;28;20100;-93
2022/06/21 10:48:40;;;;;;;59.67;29.30;;;;;;;23.07;33.49;93289.06;5009405;28;20026;-96
2022/06/21 10:51:14;;;;;;;56.47;29.83;;;;;;;23.09;33.46;93294.75;4992608;28;20117;-95
2022/06/21 10:53:55;;;;;;;46.78;27.52;;;;;;;23.11;33.15;93292.94;5011907;28;20057;-93
2022/06/21 11:01:17;;;;;;;132.13;44.17;;;;;;;23.12;33.74;93277.88;5014565;28;19947;-90
2022/06/21 11:02:56;;;;;;;100.22;35.90;;;;;;;23.13;34.06;93278.59;4997144;28;20072;-91
2022/06/21 11:05:48;;;;;;;204.90;87.32;;;;;;;23.15;34.00;93274.03;5013340;28;20121;-91
2022/06/21 11:08:20;;;;;;;139.43;59.35;;;;;;;23.14;33.87;93269.06;4999411;28;20033;-88
2022/06/21 11:11:06;;;;;;;248.90;133.65;;;;;;;23.16;34.22;93266.50;4995422;28;20034;-89
2022/06/21 11:13:40;;;;;;;270.95;147.25;;;;;;;23.17;34.24;93260.41;4994610;28;20036;-92
2022/06/21 11:16:23;;;;;;;297.23;175.50;;;;;;;23.18;34.37;93272.91;4999074;28;20035;-88
2022/06/21 11:19:02;;;;;;;255.23;136.80;;;;;;;23.19;34.18;93266.13;4989265;28;20437;-87
2022/06/21 11:21:47;;;;;;;452.15;185.10;;;;;;;23.23;34.38;93257.50;4978248;28;20034;-86
2022/06/21 11:24:33;;;;;;;282.70;140.77;;;;;;;23.25;34.28;93261.19;4993537;28;20036;-88
2022/06/21 11:27:02;;;;;;;308.63;144.18;;;;;;;23.28;34.62;93258.63;4991981;28;20033;-87
2022/06/21 11:29:46;;;;;;;241.60;139.07;;;;;;;23.31;34.69;93252.00;4989543;28;20021;-91
2022/06/21 11:32:33;;;;;;;225.40;135.38;;;;;;;23.34;34.83;93245.41;4984118;28;20531;-89
2022/06/21 11:35:13;;;;;;;219.07;123.10;;;;;;;23.30;34.68;93245.75;5018027;28;20029;-96
2022/06/21 11:38:19;;;;;;;311.05;166.32;;;;;;;23.32;34.93;93245.22;5005028;28;20061;-91
2022/06/21 11:41:08;;;;;;;459.70;225.07;;;;;;;23.34;34.87;93237.13;4984950;28;20026;-88
2022/06/21 11:43:40;;;;;;;352.30;145.47;;;;;;;23.34;35.03;93234.38;5008707;28;20022;-95
2022/06/21 11:46:14;;;;;;;212.18;110.25;;;;;;;23.34;34.92;93232.34;4996200;28;20464;-89
2022/06/21 11:48:57;;;;;;;228.43;122.10;;;;;;;23.35;34.91;93233.09;4992755;28;20041;-89
2022/06/21 11:52:01;;;;;;;233.75;130.13;;;;;;;23.33;34.99;93230.88;4991878;28;20033;-92
2022/06/21 11:54:49;;;;;;;236.02;131.95;;;;;;;23.37;35.41;93238.78;4956194;28;20026;-89
2022/06/21 11:57:24;;;;;;;223.48;119.55;;;;;;;23.38;34.92;93229.97;4965715;28;20041;-92
2022/06/21 11:59:57;;;;;;;207.57;107.43;;;;;;;23.34;34.66;93226.09;4981828;28;20440;-92
2022/06/21 12:02:37;;;;;;;243.15;125.35;;;;;;;23.36;35.03;93234.56;4980868;28;20119;-93
2022/06/21 12:05:28;;;;;;;233.05;112.25;;;;;;;23.36;35.04;93221.50;4991379;28;20124;-93
2022/06/21 12:07:59;;;;;;;172.68;88.45;;;;;;;23.42;34.83;93215.78;4962195;28;20043;-92
2022/06/21 12:10:36;;;;;;;;;;;;;;;23.40;35.43;93213.59;4977359;28;20039;-94
2022/06/21 12:13:20;;;;;;;168.07;86.90;;;;;;;23.38;35.17;93207.91;4956652;28;19929;-93
2022/06/21 12:16:09;;;;;;;106.88;53.90;;;;;;;23.43;35.51;93214.50;4986312;23;20497;-94
2022/06/21 12:18:36;;;;;;;125.78;66.20;;;;;;;23.43;35.24;93203.47;4950598;28;20034;-96
2022/06/21 12:21:16;;;;;;;138.18;76.35;;;;;;;23.38;35.52;93207.91;4968583;28;20026;-92
2022/06/21 12:23:52;;;;;;;97.07;54.38;;;;;;;23.35;35.99;93208.25;4965257;28;20033;-95
2022/06/21 12:26:20;;;;;;;112.25;60.92;;;;;;;23.39;35.56;93203.09;4980563;28;20022;-90